PWSweather.com
Personal Weather Stations
Station Observations
KD0MBL
Pueblo West, Pueblo West, CO 81007

Pueblo WestPueblo West, CO 81007

Lat: 38.380276, Lon: -104.7134279

Elevation: 5220

Station Type: Davis VantageVue

Latest ConditionsUpdated 7:38:01 PM MDT Tuesday, Apr 21, 2015
Currently Today's Max Today's Min Today's Average
Temperature 57.9°F14.4°C 71.2°F21.8°C 36.5°F2.5°C 54.2°F12.3°C
Dew Point 34.3°F1.3°C 38.0°F3.3°C 23.7°F-4.6°C 32.7°F0.4°C
Winds 4.0 mph NE6.4 kmh NE 14.0 mph NE22.5 kmh NE - 5.3 mph 8.5 kmh
Wind Gusts 7.0 mph11.3 kmh 28.0 mph45.1 kmh - -
Humidity 41% 88% 17% 52%
Pressure 29.83 in1010.2 mb 30.00 in1015.9 mb 29.78 in1008.5 mb -
Hour Temp Dew Point Humidity Winds Wind Gusts Pressure Precip Precip Rate Daily Precip Total
07:38 PM 57.9°F14.4°C 34.3°F1.3°C 41% 4.0 mph NE6.4 kmh NE 7.0 mph11.3 kmh 29.83 in1010.2 mb 0.00 in0.0 mm 0.00 in0.0 mm 0.00 in0.0 mm
07:33 PM 58.1°F14.5°C 34.5°F1.4°C 41% 4.0 mph NE6.4 kmh NE 6.0 mph9.7 kmh 29.82 in1009.8 mb 0.00 in0.0 mm 0.00 in0.0 mm 0.00 in0.0 mm
07:27 PM 58.4°F14.7°C 34.2°F1.2°C 40% 4.0 mph NE6.4 kmh NE 6.0 mph9.7 kmh 29.82 in1009.8 mb 0.00 in0.0 mm 0.00 in0.0 mm 0.00 in0.0 mm
07:23 PM 58.7°F14.8°C 34.4°F1.3°C 40% 4.0 mph NE6.4 kmh NE 6.0 mph9.7 kmh 29.82 in1009.8 mb 0.00 in0.0 mm 0.00 in0.0 mm 0.00 in0.0 mm
07:18 PM 59.0°F15.0°C 34.1°F1.2°C 39% 4.0 mph NE6.4 kmh NE 6.0 mph9.7 kmh 29.82 in1009.8 mb 0.00 in0.0 mm 0.00 in0.0 mm 0.00 in0.0 mm
07:13 PM 59.6°F15.3°C 34.6°F1.4°C 39% 4.0 mph ENE6.4 kmh ENE 7.0 mph11.3 kmh 29.81 in1009.5 mb 0.00 in0.0 mm 0.00 in0.0 mm 0.00 in0.0 mm
07:07 PM 60.5°F15.8°C 34.1°F1.2°C 37% 5.0 mph ENE8.0 kmh ENE 10.0 mph16.1 kmh 29.81 in1009.5 mb 0.00 in0.0 mm 0.00 in0.0 mm 0.00 in0.0 mm
07:02 PM 61.2°F16.2°C 33.3°F0.7°C 35% 8.0 mph ENE12.9 kmh ENE 13.0 mph20.9 kmh 29.81 in1009.5 mb 0.00 in0.0 mm 0.00 in0.0 mm 0.00 in0.0 mm
06:57 PM 61.4°F16.3°C 33.5°F0.8°C 35% 8.0 mph ENE12.9 kmh ENE 13.0 mph20.9 kmh 29.81 in1009.5 mb 0.00 in0.0 mm 0.00 in0.0 mm 0.00 in0.0 mm
06:53 PM 61.6°F16.4°C 33.7°F0.9°C 35% 8.0 mph ENE12.9 kmh ENE 13.0 mph20.9 kmh 29.81 in1009.5 mb 0.00 in0.0 mm 0.00 in0.0 mm 0.00 in0.0 mm
06:48 PM 62.0°F16.7°C 33.3°F0.7°C 34% 8.0 mph ENE12.9 kmh ENE 12.0 mph19.3 kmh 29.81 in1009.5 mb 0.00 in0.0 mm 0.00 in0.0 mm 0.00 in0.0 mm
06:43 PM 62.3°F16.8°C 33.6°F0.9°C 34% 9.0 mph ENE14.5 kmh ENE 12.0 mph19.3 kmh 29.81 in1009.5 mb 0.00 in0.0 mm 0.00 in0.0 mm 0.00 in0.0 mm
06:38 PM 62.6°F17.0°C 33.8°F1.0°C 34% 10.0 mph ENE16.1 kmh ENE 14.0 mph22.5 kmh 29.81 in1009.5 mb 0.00 in0.0 mm 0.00 in0.0 mm 0.00 in0.0 mm
06:32 PM 63.0°F17.2°C 33.4°F0.8°C 33% 10.0 mph ENE16.1 kmh ENE 14.0 mph22.5 kmh 29.81 in1009.5 mb 0.00 in0.0 mm 0.00 in0.0 mm 0.00 in0.0 mm
06:28 PM 63.2°F17.3°C 32.8°F0.4°C 32% 9.0 mph ENE14.5 kmh ENE 13.0 mph20.9 kmh 29.80 in1009.1 mb 0.00 in0.0 mm 0.00 in0.0 mm 0.00 in0.0 mm
06:23 PM 63.4°F17.4°C 32.2°F0.1°C 31% 9.0 mph ENE14.5 kmh ENE 13.0 mph20.9 kmh 29.81 in1009.5 mb 0.00 in0.0 mm 0.00 in0.0 mm 0.00 in0.0 mm
06:18 PM 63.9°F17.7°C 32.6°F0.3°C 31% 10.0 mph ENE16.1 kmh ENE 14.0 mph22.5 kmh 29.81 in1009.5 mb 0.00 in0.0 mm 0.00 in0.0 mm 0.00 in0.0 mm
06:13 PM 64.1°F17.8°C 32.8°F0.4°C 31% 11.0 mph ENE17.7 kmh ENE 17.0 mph27.4 kmh 29.80 in1009.1 mb 0.00 in0.0 mm 0.00 in0.0 mm 0.00 in0.0 mm
06:08 PM 64.2°F17.9°C 32.9°F0.5°C 31% 13.0 mph ENE20.9 kmh ENE 19.0 mph30.6 kmh 29.80 in1009.1 mb 0.00 in0.0 mm 0.00 in0.0 mm 0.00 in0.0 mm
06:03 PM 64.2°F17.9°C 32.9°F0.5°C 31% 12.0 mph ENE19.3 kmh ENE 19.0 mph30.6 kmh 29.80 in1009.1 mb 0.00 in0.0 mm 0.00 in0.0 mm 0.00 in0.0 mm
05:58 PM 64.1°F17.8°C 32.8°F0.4°C 31% 11.0 mph ENE17.7 kmh ENE 17.0 mph27.4 kmh 29.80 in1009.1 mb 0.00 in0.0 mm 0.00 in0.0 mm 0.00 in0.0 mm
05:53 PM 64.4°F18.0°C 33.1°F0.6°C 31% 11.0 mph ENE17.7 kmh ENE 17.0 mph27.4 kmh 29.80 in1009.1 mb 0.00 in0.0 mm 0.00 in0.0 mm 0.00 in0.0 mm
05:48 PM 64.4°F18.0°C 33.1°F0.6°C 31% 10.0 mph ENE16.1 kmh ENE 14.0 mph22.5 kmh 29.80 in1009.1 mb 0.00 in0.0 mm 0.00 in0.0 mm 0.00 in0.0 mm
05:42 PM 64.7°F18.2°C 33.3°F0.7°C 31% 10.0 mph ENE16.1 kmh ENE 15.0 mph24.1 kmh 29.80 in1009.1 mb 0.00 in0.0 mm 0.00 in0.0 mm 0.00 in0.0 mm
05:37 PM 65.0°F18.3°C 32.8°F0.4°C 30% 8.0 mph E12.9 kmh E 15.0 mph24.1 kmh 29.80 in1009.1 mb 0.00 in0.0 mm 0.00 in0.0 mm 0.00 in0.0 mm
05:33 PM 65.9°F18.8°C 34.4°F1.3°C 31% 4.0 mph E6.4 kmh E 10.0 mph16.1 kmh 29.80 in1009.1 mb 0.00 in0.0 mm 0.00 in0.0 mm 0.00 in0.0 mm
05:28 PM 66.3°F19.1°C 27.4°F-2.6°C 23% 4.0 mph S6.4 kmh S 13.0 mph20.9 kmh 29.80 in1009.1 mb 0.00 in0.0 mm 0.00 in0.0 mm 0.00 in0.0 mm
05:23 PM 66.1°F18.9°C 28.2°F-2.1°C 24% 6.0 mph S9.7 kmh S 21.0 mph33.8 kmh 29.80 in1009.1 mb 0.00 in0.0 mm 0.00 in0.0 mm 0.00 in0.0 mm
05:18 PM 66.1°F18.9°C 30.2°F-1.0°C 26% 6.0 mph SSW9.7 kmh SSW 22.0 mph35.4 kmh 29.81 in1009.5 mb 0.00 in0.0 mm 0.00 in0.0 mm 0.00 in0.0 mm
05:12 PM 66.0°F18.9°C 30.1°F-1.1°C 26% 6.0 mph SW9.7 kmh SW 22.0 mph35.4 kmh 29.82 in1009.8 mb 0.00 in0.0 mm 0.00 in0.0 mm 0.00 in0.0 mm
05:08 PM 65.7°F18.7°C 27.9°F-2.3°C 24% 9.0 mph S14.5 kmh S 24.0 mph38.6 kmh 29.82 in1009.8 mb 0.00 in0.0 mm 0.00 in0.0 mm 0.00 in0.0 mm
05:03 PM 65.7°F18.7°C 27.9°F-2.3°C 24% 10.0 mph SSE16.1 kmh SSE 24.0 mph38.6 kmh 29.81 in1009.5 mb 0.00 in0.0 mm 0.00 in0.0 mm 0.00 in0.0 mm
04:58 PM 66.5°F19.2°C 28.6°F-1.9°C 24% 9.0 mph ESE14.5 kmh ESE 18.0 mph29.0 kmh 29.80 in1009.1 mb 0.00 in0.0 mm 0.00 in0.0 mm 0.00 in0.0 mm
04:53 PM 66.9°F19.4°C 27.9°F-2.3°C 23% 11.0 mph ENE17.7 kmh ENE 16.0 mph25.7 kmh 29.80 in1009.1 mb 0.00 in0.0 mm 0.00 in0.0 mm 0.00 in0.0 mm
04:47 PM 67.0°F19.4°C 27.9°F-2.3°C 23% 14.0 mph NE22.5 kmh NE 18.0 mph29.0 kmh 29.79 in1008.8 mb 0.00 in0.0 mm 0.00 in0.0 mm 0.00 in0.0 mm
04:43 PM 67.5°F19.7°C 27.3°F-2.6°C 22% 12.0 mph NE19.3 kmh NE 21.0 mph33.8 kmh 29.79 in1008.8 mb 0.00 in0.0 mm 0.00 in0.0 mm 0.00 in0.0 mm
04:38 PM 68.3°F20.2°C 29.0°F-1.7°C 23% 9.0 mph ENE14.5 kmh ENE 21.0 mph33.8 kmh 29.79 in1008.8 mb 0.00 in0.0 mm 0.00 in0.0 mm 0.00 in0.0 mm
04:32 PM 68.6°F20.3°C 27.1°F-2.7°C 21% 9.0 mph E14.5 kmh E 18.0 mph29.0 kmh 29.79 in1008.8 mb 0.00 in0.0 mm 0.00 in0.0 mm 0.00 in0.0 mm
04:27 PM 68.9°F20.5°C 27.3°F-2.6°C 21% 11.0 mph E17.7 kmh E 18.0 mph29.0 kmh 29.78 in1008.5 mb 0.00 in0.0 mm 0.00 in0.0 mm 0.00 in0.0 mm
04:23 PM 69.3°F20.7°C 27.7°F-2.4°C 21% 10.0 mph ENE16.1 kmh ENE 16.0 mph25.7 kmh 29.78 in1008.5 mb 0.00 in0.0 mm 0.00 in0.0 mm 0.00 in0.0 mm
04:18 PM 69.7°F20.9°C 28.0°F-2.2°C 21% 8.0 mph ENE12.9 kmh ENE 16.0 mph25.7 kmh 29.78 in1008.5 mb 0.00 in0.0 mm 0.00 in0.0 mm 0.00 in0.0 mm
04:13 PM 69.7°F20.9°C 26.8°F-2.9°C 20% 7.0 mph NE11.3 kmh NE 13.0 mph20.9 kmh 29.78 in1008.5 mb 0.00 in0.0 mm 0.00 in0.0 mm 0.00 in0.0 mm
04:08 PM 69.6°F20.9°C 27.9°F-2.3°C 21% 8.0 mph NE12.9 kmh NE 15.0 mph24.1 kmh 29.78 in1008.5 mb 0.00 in0.0 mm 0.00 in0.0 mm 0.00 in0.0 mm
04:03 PM 69.9°F21.1°C 28.2°F-2.1°C 21% 8.0 mph ENE12.9 kmh ENE 15.0 mph24.1 kmh 29.78 in1008.5 mb 0.00 in0.0 mm 0.00 in0.0 mm 0.00 in0.0 mm
03:58 PM 69.4°F20.8°C 27.7°F-2.4°C 21% 8.0 mph NE12.9 kmh NE 13.0 mph20.9 kmh 29.78 in1008.5 mb 0.00 in0.0 mm 0.00 in0.0 mm 0.00 in0.0 mm
03:53 PM 69.2°F20.7°C 27.6°F-2.4°C 21% 9.0 mph NE14.5 kmh NE 15.0 mph24.1 kmh 29.78 in1008.5 mb 0.00 in0.0 mm 0.00 in0.0 mm 0.00 in0.0 mm
03:48 PM 69.3°F20.7°C 27.7°F-2.4°C 21% 11.0 mph NE17.7 kmh NE 15.0 mph24.1 kmh 29.79 in1008.8 mb 0.00 in0.0 mm 0.00 in0.0 mm 0.00 in0.0 mm
03:43 PM 69.1°F20.6°C 29.7°F-1.3°C 23% 11.0 mph NE17.7 kmh NE 16.0 mph25.7 kmh 29.79 in1008.8 mb 0.00 in0.0 mm 0.00 in0.0 mm 0.00 in0.0 mm
03:37 PM 68.3°F20.2°C 28.0°F-2.2°C 22% 11.0 mph NE17.7 kmh NE 17.0 mph27.4 kmh 29.79 in1008.8 mb 0.00 in0.0 mm 0.00 in0.0 mm 0.00 in0.0 mm
03:32 PM 68.1°F20.1°C 28.9°F-1.7°C 23% 12.0 mph NE19.3 kmh NE 17.0 mph27.4 kmh 29.79 in1008.8 mb 0.00 in0.0 mm 0.00 in0.0 mm 0.00 in0.0 mm
03:28 PM 68.2°F20.1°C 29.0°F-1.7°C 23% 12.0 mph NE19.3 kmh NE 17.0 mph27.4 kmh 29.79 in1008.8 mb 0.00 in0.0 mm 0.00 in0.0 mm 0.00 in0.0 mm
03:23 PM 68.4°F20.2°C 29.1°F-1.6°C 23% 11.0 mph ENE17.7 kmh ENE 16.0 mph25.7 kmh 29.79 in1008.8 mb 0.00 in0.0 mm 0.00 in0.0 mm 0.00 in0.0 mm
03:18 PM 68.3°F20.2°C 29.0°F-1.7°C 23% 10.0 mph ENE16.1 kmh ENE 15.0 mph24.1 kmh 29.79 in1008.8 mb 0.00 in0.0 mm 0.00 in0.0 mm 0.00 in0.0 mm
03:13 PM 68.3°F20.2°C 28.0°F-2.2°C 22% 9.0 mph ENE14.5 kmh ENE 17.0 mph27.4 kmh 29.80 in1009.1 mb 0.00 in0.0 mm 0.00 in0.0 mm 0.00 in0.0 mm
03:07 PM 68.2°F20.1°C 27.9°F-2.3°C 22% 10.0 mph ENE16.1 kmh ENE 17.0 mph27.4 kmh 29.80 in1009.1 mb 0.00 in0.0 mm 0.00 in0.0 mm 0.00 in0.0 mm
03:03 PM 68.6°F20.3°C 28.2°F-2.1°C 22% 10.0 mph ENE16.1 kmh ENE 17.0 mph27.4 kmh 29.80 in1009.1 mb 0.00 in0.0 mm 0.00 in0.0 mm 0.00 in0.0 mm
02:58 PM 68.6°F20.3°C 28.2°F-2.1°C 22% 9.0 mph ENE14.5 kmh ENE 17.0 mph27.4 kmh 29.80 in1009.1 mb 0.00 in0.0 mm 0.00 in0.0 mm 0.00 in0.0 mm
02:53 PM 68.5°F20.3°C 27.0°F-2.8°C 21% 9.0 mph E14.5 kmh E 14.0 mph22.5 kmh 29.80 in1009.1 mb 0.00 in0.0 mm 0.00 in0.0 mm 0.00 in0.0 mm
02:48 PM 69.1°F20.6°C 28.6°F-1.9°C 22% 8.0 mph E12.9 kmh E 14.0 mph22.5 kmh 29.80 in1009.1 mb 0.00 in0.0 mm 0.00 in0.0 mm 0.00 in0.0 mm
02:43 PM 68.7°F20.4°C 28.3°F-2.1°C 22% 8.0 mph E12.9 kmh E 15.0 mph24.1 kmh 29.81 in1009.5 mb 0.00 in0.0 mm 0.00 in0.0 mm 0.00 in0.0 mm
02:38 PM 68.5°F20.3°C 28.1°F-2.2°C 22% 9.0 mph ENE14.5 kmh ENE 15.0 mph24.1 kmh 29.81 in1009.5 mb 0.00 in0.0 mm 0.00 in0.0 mm 0.00 in0.0 mm
02:32 PM 69.3°F20.7°C 28.8°F-1.8°C 22% 12.0 mph NE19.3 kmh NE 17.0 mph27.4 kmh 29.81 in1009.5 mb 0.00 in0.0 mm 0.00 in0.0 mm 0.00 in0.0 mm
02:27 PM 69.8°F21.0°C 29.2°F-1.6°C 22% 11.0 mph ENE17.7 kmh ENE 17.0 mph27.4 kmh 29.82 in1009.8 mb 0.00 in0.0 mm 0.00 in0.0 mm 0.00 in0.0 mm
02:23 PM 69.6°F20.9°C 29.0°F-1.7°C 22% 10.0 mph ENE16.1 kmh ENE 20.0 mph32.2 kmh 29.82 in1009.8 mb 0.00 in0.0 mm 0.00 in0.0 mm 0.00 in0.0 mm
02:18 PM 69.7°F20.9°C 29.1°F-1.6°C 22% 12.0 mph ENE19.3 kmh ENE 28.0 mph45.1 kmh 29.83 in1010.2 mb 0.00 in0.0 mm 0.00 in0.0 mm 0.00 in0.0 mm
02:13 PM 69.9°F21.1°C 29.3°F-1.5°C 22% 12.0 mph NE19.3 kmh NE 28.0 mph45.1 kmh 29.83 in1010.2 mb 0.00 in0.0 mm 0.00 in0.0 mm 0.00 in0.0 mm
02:08 PM 69.4°F20.8°C 27.7°F-2.4°C 21% 10.0 mph N16.1 kmh N 23.0 mph37.0 kmh 29.83 in1010.2 mb 0.00 in0.0 mm 0.00 in0.0 mm 0.00 in0.0 mm
02:03 PM 70.1°F21.2°C 27.1°F-2.7°C 20% 10.0 mph NW16.1 kmh NW 19.0 mph30.6 kmh 29.84 in1010.5 mb 0.00 in0.0 mm 0.00 in0.0 mm 0.00 in0.0 mm
01:57 PM 71.2°F21.8°C 26.8°F-2.9°C 19% 7.0 mph W11.3 kmh W 19.0 mph30.6 kmh 29.83 in1010.2 mb 0.00 in0.0 mm 0.00 in0.0 mm 0.00 in0.0 mm
01:53 PM 70.7°F21.5°C 23.7°F-4.6°C 17% 6.0 mph W9.7 kmh W 17.0 mph27.4 kmh 29.84 in1010.5 mb 0.00 in0.0 mm 0.00 in0.0 mm 0.00 in0.0 mm
01:47 PM 70.5°F21.4°C 24.9°F-3.9°C 18% 6.0 mph WNW9.7 kmh WNW 17.0 mph27.4 kmh 29.84 in1010.5 mb 0.00 in0.0 mm 0.00 in0.0 mm 0.00 in0.0 mm
01:43 PM 69.2°F20.7°C 25.1°F-3.8°C 19% 6.0 mph WNW9.7 kmh WNW 10.0 mph16.1 kmh 29.84 in1010.5 mb 0.00 in0.0 mm 0.00 in0.0 mm 0.00 in0.0 mm
01:37 PM 69.0°F20.6°C 25.0°F-3.9°C 19% 7.0 mph W11.3 kmh W 17.0 mph27.4 kmh 29.84 in1010.5 mb 0.00 in0.0 mm 0.00 in0.0 mm 0.00 in0.0 mm
01:33 PM 69.3°F20.7°C 25.2°F-3.8°C 19% 8.0 mph WSW12.9 kmh WSW 19.0 mph30.6 kmh 29.84 in1010.5 mb 0.00 in0.0 mm 0.00 in0.0 mm 0.00 in0.0 mm
01:28 PM 69.0°F20.6°C 26.2°F-3.2°C 20% 8.0 mph SW12.9 kmh SW 19.0 mph30.6 kmh 29.84 in1010.5 mb 0.00 in0.0 mm 0.00 in0.0 mm 0.00 in0.0 mm
01:23 PM 69.6°F20.9°C 26.7°F-2.9°C 20% 6.0 mph SSW9.7 kmh SSW 13.0 mph20.9 kmh 29.85 in1010.8 mb 0.00 in0.0 mm 0.00 in0.0 mm 0.00 in0.0 mm
01:18 PM 69.7°F20.9°C 28.0°F-2.2°C 21% 4.0 mph SW6.4 kmh SW 14.0 mph22.5 kmh 29.85 in1010.8 mb 0.00 in0.0 mm 0.00 in0.0 mm 0.00 in0.0 mm
01:12 PM 68.8°F20.4°C 24.8°F-4.0°C 19% 4.0 mph WSW6.4 kmh WSW 14.0 mph22.5 kmh 29.85 in1010.8 mb 0.00 in0.0 mm 0.00 in0.0 mm 0.00 in0.0 mm
01:07 PM 69.6°F20.9°C 27.9°F-2.3°C 21% 5.0 mph W8.0 kmh W 11.0 mph17.7 kmh 29.85 in1010.8 mb 0.00 in0.0 mm 0.00 in0.0 mm 0.00 in0.0 mm
01:03 PM 69.0°F20.6°C 26.2°F-3.2°C 20% 6.0 mph WNW9.7 kmh WNW 13.0 mph20.9 kmh 29.86 in1011.2 mb 0.00 in0.0 mm 0.00 in0.0 mm 0.00 in0.0 mm
12:58 PM 68.9°F20.5°C 28.5°F-1.9°C 22% 6.0 mph WNW9.7 kmh WNW 13.0 mph20.9 kmh 29.86 in1011.2 mb 0.00 in0.0 mm 0.00 in0.0 mm 0.00 in0.0 mm
12:53 PM 68.8°F20.4°C 28.4°F-2.0°C 22% 5.0 mph WSW8.0 kmh WSW 13.0 mph20.9 kmh 29.86 in1011.2 mb 0.00 in0.0 mm 0.00 in0.0 mm 0.00 in0.0 mm
12:48 PM 68.8°F20.4°C 27.2°F-2.7°C 21% 3.0 mph W4.8 kmh W 13.0 mph20.9 kmh 29.86 in1011.2 mb 0.00 in0.0 mm 0.00 in0.0 mm 0.00 in0.0 mm
12:43 PM 68.4°F20.2°C 29.1°F-1.6°C 23% 4.0 mph W6.4 kmh W 13.0 mph20.9 kmh 29.87 in1011.5 mb 0.00 in0.0 mm 0.00 in0.0 mm 0.00 in0.0 mm
12:38 PM 68.3°F20.2°C 29.0°F-1.7°C 23% 5.0 mph W8.0 kmh W 13.0 mph20.9 kmh 29.87 in1011.5 mb 0.00 in0.0 mm 0.00 in0.0 mm 0.00 in0.0 mm
12:33 PM 67.7°F19.8°C 29.6°F-1.3°C 24% 5.0 mph W8.0 kmh W 11.0 mph17.7 kmh 29.87 in1011.5 mb 0.00 in0.0 mm 0.00 in0.0 mm 0.00 in0.0 mm
12:27 PM 67.0°F19.4°C 27.9°F-2.3°C 23% 8.0 mph W12.9 kmh W 15.0 mph24.1 kmh 29.88 in1011.9 mb 0.00 in0.0 mm 0.00 in0.0 mm 0.00 in0.0 mm
12:23 PM 67.1°F19.5°C 29.1°F-1.6°C 24% 12.0 mph W19.3 kmh W 18.0 mph29.0 kmh 29.88 in1011.9 mb 0.00 in0.0 mm 0.00 in0.0 mm 0.00 in0.0 mm
12:18 PM 66.8°F19.3°C 28.8°F-1.8°C 24% 12.0 mph W19.3 kmh W 18.0 mph29.0 kmh 29.89 in1012.2 mb 0.00 in0.0 mm 0.00 in0.0 mm 0.00 in0.0 mm
12:13 PM 66.9°F19.4°C 26.8°F-2.9°C 22% 12.0 mph WSW19.3 kmh WSW 17.0 mph27.4 kmh 29.88 in1011.9 mb 0.00 in0.0 mm 0.00 in0.0 mm 0.00 in0.0 mm
12:07 PM 66.9°F19.4°C 28.9°F-1.7°C 24% 11.0 mph WSW17.7 kmh WSW 18.0 mph29.0 kmh 29.89 in1012.2 mb 0.00 in0.0 mm 0.00 in0.0 mm 0.00 in0.0 mm
12:03 PM 66.6°F19.2°C 28.6°F-1.9°C 24% 12.0 mph WSW19.3 kmh WSW 18.0 mph29.0 kmh 29.89 in1012.2 mb 0.00 in0.0 mm 0.00 in0.0 mm 0.00 in0.0 mm
11:58 AM 66.8°F19.3°C 28.8°F-1.8°C 24% 12.0 mph WSW19.3 kmh WSW 18.0 mph29.0 kmh 29.89 in1012.2 mb 0.00 in0.0 mm 0.00 in0.0 mm 0.00 in0.0 mm
11:53 AM 66.5°F19.2°C 29.6°F-1.3°C 25% 12.0 mph WSW19.3 kmh WSW 18.0 mph29.0 kmh 29.89 in1012.2 mb 0.00 in0.0 mm 0.00 in0.0 mm 0.00 in0.0 mm
11:48 AM 66.2°F19.0°C 28.3°F-2.1°C 24% 11.0 mph WSW17.7 kmh WSW 18.0 mph29.0 kmh 29.90 in1012.5 mb 0.00 in0.0 mm 0.00 in0.0 mm 0.00 in0.0 mm
11:43 AM 65.7°F18.7°C 28.9°F-1.7°C 25% 11.0 mph WSW17.7 kmh WSW 18.0 mph29.0 kmh 29.90 in1012.5 mb 0.00 in0.0 mm 0.00 in0.0 mm 0.00 in0.0 mm
11:38 AM 65.6°F18.7°C 28.8°F-1.8°C 25% 10.0 mph WSW16.1 kmh WSW 18.0 mph29.0 kmh 29.90 in1012.5 mb 0.00 in0.0 mm 0.00 in0.0 mm 0.00 in0.0 mm
11:33 AM 65.5°F18.6°C 29.7°F-1.3°C 26% 9.0 mph WSW14.5 kmh WSW 13.0 mph20.9 kmh 29.90 in1012.5 mb 0.00 in0.0 mm 0.00 in0.0 mm 0.00 in0.0 mm
11:27 AM 65.2°F18.4°C 28.5°F-1.9°C 25% 9.0 mph WSW14.5 kmh WSW 14.0 mph22.5 kmh 29.91 in1012.9 mb 0.00 in0.0 mm 0.00 in0.0 mm 0.00 in0.0 mm
11:22 AM 64.6°F18.1°C 28.9°F-1.7°C 26% 10.0 mph WSW16.1 kmh WSW 15.0 mph24.1 kmh 29.91 in1012.9 mb 0.00 in0.0 mm 0.00 in0.0 mm 0.00 in0.0 mm
11:18 AM 64.3°F17.9°C 29.6°F-1.3°C 27% 9.0 mph WSW14.5 kmh WSW 15.0 mph24.1 kmh 29.91 in1012.9 mb 0.00 in0.0 mm 0.00 in0.0 mm 0.00 in0.0 mm
11:13 AM 63.5°F17.5°C 30.6°F-0.8°C 29% 7.0 mph SW11.3 kmh SW 12.0 mph19.3 kmh 29.91 in1012.9 mb 0.00 in0.0 mm 0.00 in0.0 mm 0.00 in0.0 mm
11:08 AM 62.7°F17.1°C 30.0°F-1.1°C 29% 7.0 mph SW11.3 kmh SW 12.0 mph19.3 kmh 29.91 in1012.9 mb 0.00 in0.0 mm 0.00 in0.0 mm 0.00 in0.0 mm
11:03 AM 62.6°F17.0°C 30.7°F-0.7°C 30% 6.0 mph SW9.7 kmh SW 11.0 mph17.7 kmh 29.92 in1013.2 mb 0.00 in0.0 mm 0.00 in0.0 mm 0.00 in0.0 mm
10:58 AM 61.7°F16.5°C 31.5°F-0.3°C 32% 6.0 mph SW9.7 kmh SW 11.0 mph17.7 kmh 29.92 in1013.2 mb 0.00 in0.0 mm 0.00 in0.0 mm 0.00 in0.0 mm
10:52 AM 61.4°F16.3°C 29.7°F-1.3°C 30% 7.0 mph SW11.3 kmh SW 11.0 mph17.7 kmh 29.93 in1013.5 mb 0.00 in0.0 mm 0.00 in0.0 mm 0.00 in0.0 mm
10:47 AM 61.1°F16.2°C 31.8°F-0.1°C 33% 6.0 mph SW9.7 kmh SW 11.0 mph17.7 kmh 29.93 in1013.5 mb 0.00 in0.0 mm 0.00 in0.0 mm 0.00 in0.0 mm
10:42 AM 60.4°F15.8°C 32.6°F0.3°C 35% 6.0 mph SW9.7 kmh SW 12.0 mph19.3 kmh 29.93 in1013.5 mb 0.00 in0.0 mm 0.00 in0.0 mm 0.00 in0.0 mm
10:38 AM 59.7°F15.4°C 32.7°F0.4°C 36% 8.0 mph WSW12.9 kmh WSW 12.0 mph19.3 kmh 29.93 in1013.5 mb 0.00 in0.0 mm 0.00 in0.0 mm 0.00 in0.0 mm
10:32 AM 59.4°F15.2°C 33.8°F1.0°C 38% 9.0 mph WSW14.5 kmh WSW 14.0 mph22.5 kmh 29.93 in1013.5 mb 0.00 in0.0 mm 0.00 in0.0 mm 0.00 in0.0 mm
10:28 AM 58.5°F14.7°C 34.9°F1.6°C 41% 9.0 mph WSW14.5 kmh WSW 14.0 mph22.5 kmh 29.93 in1013.5 mb 0.00 in0.0 mm 0.00 in0.0 mm 0.00 in0.0 mm
10:23 AM 57.4°F14.1°C 35.1°F1.7°C 43% 7.0 mph SW11.3 kmh SW 12.0 mph19.3 kmh 29.93 in1013.5 mb 0.00 in0.0 mm 0.00 in0.0 mm 0.00 in0.0 mm
10:18 AM 56.5°F13.6°C 36.0°F2.2°C 46% 7.0 mph SW11.3 kmh SW 10.0 mph16.1 kmh 29.94 in1013.9 mb 0.00 in0.0 mm 0.00 in0.0 mm 0.00 in0.0 mm
10:12 AM 56.0°F13.3°C 37.1°F2.8°C 49% 8.0 mph WSW12.9 kmh WSW 12.0 mph19.3 kmh 29.94 in1013.9 mb 0.00 in0.0 mm 0.00 in0.0 mm 0.00 in0.0 mm
10:08 AM 55.3°F12.9°C 35.9°F2.2°C 48% 7.0 mph WSW11.3 kmh WSW 12.0 mph19.3 kmh 29.94 in1013.9 mb 0.00 in0.0 mm 0.00 in0.0 mm 0.00 in0.0 mm
10:03 AM 54.5°F12.5°C 36.7°F2.6°C 51% 7.0 mph WSW11.3 kmh WSW 10.0 mph16.1 kmh 29.94 in1013.9 mb 0.00 in0.0 mm 0.00 in0.0 mm 0.00 in0.0 mm
09:57 AM 53.5°F11.9°C 35.8°F2.1°C 51% 8.0 mph WSW12.9 kmh WSW 11.0 mph17.7 kmh 29.95 in1014.2 mb 0.00 in0.0 mm 0.00 in0.0 mm 0.00 in0.0 mm
09:52 AM 53.5°F11.9°C 35.3°F1.8°C 50% 8.0 mph WSW12.9 kmh WSW 11.0 mph17.7 kmh 29.95 in1014.2 mb 0.00 in0.0 mm 0.00 in0.0 mm 0.00 in0.0 mm
09:47 AM 53.3°F11.8°C 35.6°F2.0°C 51% 6.0 mph WSW9.7 kmh WSW 11.0 mph17.7 kmh 29.95 in1014.2 mb 0.00 in0.0 mm 0.00 in0.0 mm 0.00 in0.0 mm
09:42 AM 52.8°F11.6°C 35.2°F1.8°C 51% 5.0 mph WSW8.0 kmh WSW 11.0 mph17.7 kmh 29.95 in1014.2 mb 0.00 in0.0 mm 0.00 in0.0 mm 0.00 in0.0 mm
09:38 AM 52.6°F11.4°C 35.0°F1.7°C 51% 4.0 mph W6.4 kmh W 11.0 mph17.7 kmh 29.95 in1014.2 mb 0.00 in0.0 mm 0.00 in0.0 mm 0.00 in0.0 mm
09:33 AM 52.0°F11.1°C 35.4°F1.9°C 53% 4.0 mph W6.4 kmh W 7.0 mph11.3 kmh 29.95 in1014.2 mb 0.00 in0.0 mm 0.00 in0.0 mm 0.00 in0.0 mm
09:28 AM 51.4°F10.8°C 34.3°F1.3°C 52% 4.0 mph WSW6.4 kmh WSW 10.0 mph16.1 kmh 29.95 in1014.2 mb 0.00 in0.0 mm 0.00 in0.0 mm 0.00 in0.0 mm
09:23 AM 51.3°F10.7°C 34.7°F1.5°C 53% 4.0 mph WSW6.4 kmh WSW 10.0 mph16.1 kmh 29.95 in1014.2 mb 0.00 in0.0 mm 0.00 in0.0 mm 0.00 in0.0 mm
09:18 AM 50.7°F10.4°C 34.2°F1.2°C 53% 3.0 mph WSW4.8 kmh WSW 9.0 mph14.5 kmh 29.95 in1014.2 mb 0.00 in0.0 mm 0.00 in0.0 mm 0.00 in0.0 mm
09:13 AM 50.6°F10.3°C 35.0°F1.7°C 55% 2.0 mph WSW3.2 kmh WSW 5.0 mph8.0 kmh 29.95 in1014.2 mb 0.00 in0.0 mm 0.00 in0.0 mm 0.00 in0.0 mm
09:07 AM 50.7°F10.4°C 36.0°F2.2°C 57% 2.0 mph SSW3.2 kmh SSW 6.0 mph9.7 kmh 29.95 in1014.2 mb 0.00 in0.0 mm 0.00 in0.0 mm 0.00 in0.0 mm
09:03 AM 50.1°F10.1°C 35.9°F2.2°C 58% 3.0 mph SW4.8 kmh SW 6.0 mph9.7 kmh 29.95 in1014.2 mb 0.00 in0.0 mm 0.00 in0.0 mm 0.00 in0.0 mm
08:57 AM 49.5°F9.7°C 35.3°F1.8°C 58% 4.0 mph SW6.4 kmh SW 6.0 mph9.7 kmh 29.96 in1014.6 mb 0.00 in0.0 mm 0.00 in0.0 mm 0.00 in0.0 mm
08:53 AM 49.4°F9.7°C 35.7°F2.1°C 59% 3.0 mph SW4.8 kmh SW 6.0 mph9.7 kmh 29.96 in1014.6 mb 0.00 in0.0 mm 0.00 in0.0 mm 0.00 in0.0 mm
08:47 AM 49.4°F9.7°C 36.1°F2.3°C 60% 2.0 mph SW3.2 kmh SW 5.0 mph8.0 kmh 29.96 in1014.6 mb 0.00 in0.0 mm 0.00 in0.0 mm 0.00 in0.0 mm
08:43 AM 49.2°F9.6°C 37.1°F2.8°C 63% 1.0 mph SW1.6 kmh SW 3.0 mph4.8 kmh 29.96 in1014.6 mb 0.00 in0.0 mm 0.00 in0.0 mm 0.00 in0.0 mm
08:37 AM 48.9°F9.4°C 37.3°F2.9°C 64% 1.0 mph W1.6 kmh W 3.0 mph4.8 kmh 29.96 in1014.6 mb 0.00 in0.0 mm 0.00 in0.0 mm 0.00 in0.0 mm
08:33 AM 48.9°F9.4°C 38.0°F3.3°C 66% Calm Calm 3.0 mph4.8 kmh 29.97 in1014.9 mb 0.00 in0.0 mm 0.00 in0.0 mm 0.00 in0.0 mm
08:28 AM 47.9°F8.8°C 37.8°F3.2°C 68% 1.0 mph SW1.6 kmh SW 2.0 mph3.2 kmh 29.97 in1014.9 mb 0.00 in0.0 mm 0.00 in0.0 mm 0.00 in0.0 mm
08:23 AM 47.2°F8.4°C 37.5°F3.1°C 69% 1.0 mph WSW1.6 kmh WSW 3.0 mph4.8 kmh 29.97 in1014.9 mb 0.00 in0.0 mm 0.00 in0.0 mm 0.00 in0.0 mm
08:18 AM 46.6°F8.1°C 37.7°F3.2°C 71% 1.0 mph W1.6 kmh W 3.0 mph4.8 kmh 29.97 in1014.9 mb 0.00 in0.0 mm 0.00 in0.0 mm 0.00 in0.0 mm
08:13 AM 45.9°F7.7°C 37.7°F3.2°C 73% 1.0 mph W1.6 kmh W 3.0 mph4.8 kmh 29.97 in1014.9 mb 0.00 in0.0 mm 0.00 in0.0 mm 0.00 in0.0 mm
08:07 AM 45.3°F7.4°C 37.5°F3.1°C 74% 2.0 mph W3.2 kmh W 3.0 mph4.8 kmh 29.97 in1014.9 mb 0.00 in0.0 mm 0.00 in0.0 mm 0.00 in0.0 mm
08:03 AM 44.6°F7.0°C 37.2°F2.9°C 75% 2.0 mph W3.2 kmh W 4.0 mph6.4 kmh 29.97 in1014.9 mb 0.00 in0.0 mm 0.00 in0.0 mm 0.00 in0.0 mm
07:57 AM 44.0°F6.7°C 36.6°F2.6°C 75% 2.0 mph W3.2 kmh W 4.0 mph6.4 kmh 29.97 in1014.9 mb 0.00 in0.0 mm 0.00 in0.0 mm 0.00 in0.0 mm
07:53 AM 43.6°F6.4°C 37.2°F2.9°C 78% 2.0 mph W3.2 kmh W 4.0 mph6.4 kmh 29.97 in1014.9 mb 0.00 in0.0 mm 0.00 in0.0 mm 0.00 in0.0 mm
07:48 AM 43.1°F6.2°C 36.7°F2.6°C 78% 1.0 mph W1.6 kmh W 3.0 mph4.8 kmh 29.97 in1014.9 mb 0.00 in0.0 mm 0.00 in0.0 mm 0.00 in0.0 mm
07:43 AM 42.7°F5.9°C 36.6°F2.6°C 79% 1.0 mph W1.6 kmh W 4.0 mph6.4 kmh 29.97 in1014.9 mb 0.00 in0.0 mm 0.00 in0.0 mm 0.00 in0.0 mm
07:37 AM 42.2°F5.7°C 36.5°F2.5°C 80% 1.0 mph W1.6 kmh W 4.0 mph6.4 kmh 29.97 in1014.9 mb 0.00 in0.0 mm 0.00 in0.0 mm 0.00 in0.0 mm
07:32 AM 42.0°F5.6°C 36.3°F2.4°C 80% Calm Calm -- 29.98 in1015.2 mb 0.00 in0.0 mm 0.00 in0.0 mm 0.00 in0.0 mm
07:28 AM 41.7°F5.4°C 36.3°F2.4°C 81% Calm Calm -- 29.98 in1015.2 mb 0.00 in0.0 mm 0.00 in0.0 mm 0.00 in0.0 mm
07:22 AM 41.5°F5.3°C 35.5°F1.9°C 79% Calm Calm -- 29.98 in1015.2 mb 0.00 in0.0 mm 0.00 in0.0 mm 0.00 in0.0 mm
07:18 AM 41.5°F5.3°C 35.5°F1.9°C 79% Calm Calm -- 29.97 in1014.9 mb 0.00 in0.0 mm 0.00 in0.0 mm 0.00 in0.0 mm
07:12 AM 40.8°F4.9°C 35.1°F1.7°C 80% Calm Calm -- 29.97 in1014.9 mb 0.00 in0.0 mm 0.00 in0.0 mm 0.00 in0.0 mm
07:08 AM 40.0°F4.4°C 34.9°F1.6°C 82% Calm Calm -- 29.97 in1014.9 mb 0.00 in0.0 mm 0.00 in0.0 mm 0.00 in0.0 mm
07:03 AM 39.8°F4.3°C 34.1°F1.2°C 80% Calm Calm -- 29.97 in1014.9 mb 0.00 in0.0 mm 0.00 in0.0 mm 0.00 in0.0 mm
06:57 AM 39.5°F4.2°C 34.2°F1.2°C 81% Calm Calm -- 29.97 in1014.9 mb 0.00 in0.0 mm 0.00 in0.0 mm 0.00 in0.0 mm
06:52 AM 39.4°F4.1°C 34.1°F1.2°C 81% 1.0 mph NE1.6 kmh NE 2.0 mph3.2 kmh 29.97 in1014.9 mb 0.00 in0.0 mm 0.00 in0.0 mm 0.00 in0.0 mm
06:48 AM 38.7°F3.7°C 33.4°F0.8°C 81% 2.0 mph NE3.2 kmh NE 4.0 mph6.4 kmh 29.97 in1014.9 mb 0.00 in0.0 mm 0.00 in0.0 mm 0.00 in0.0 mm
06:43 AM 38.9°F3.8°C 33.3°F0.7°C 80% 2.0 mph NE3.2 kmh NE 4.0 mph6.4 kmh 29.97 in1014.9 mb 0.00 in0.0 mm 0.00 in0.0 mm 0.00 in0.0 mm
06:37 AM 40.0°F4.4°C 34.3°F1.3°C 80% 2.0 mph NW3.2 kmh NW 4.0 mph6.4 kmh 29.96 in1014.6 mb 0.00 in0.0 mm 0.00 in0.0 mm 0.00 in0.0 mm
06:33 AM 39.1°F3.9°C 34.1°F1.2°C 82% 3.0 mph NW4.8 kmh NW 5.0 mph8.0 kmh 29.96 in1014.6 mb 0.00 in0.0 mm 0.00 in0.0 mm 0.00 in0.0 mm
06:27 AM 38.4°F3.6°C 33.7°F0.9°C 83% 3.0 mph NW4.8 kmh NW 5.0 mph8.0 kmh 29.96 in1014.6 mb 0.00 in0.0 mm 0.00 in0.0 mm 0.00 in0.0 mm
06:23 AM 37.8°F3.2°C 33.7°F0.9°C 85% 2.0 mph NNW3.2 kmh NNW 3.0 mph4.8 kmh 29.95 in1014.2 mb 0.00 in0.0 mm 0.00 in0.0 mm 0.00 in0.0 mm
06:18 AM 37.3°F2.9°C 33.5°F0.8°C 86% 2.0 mph N3.2 kmh N 3.0 mph4.8 kmh 29.95 in1014.2 mb 0.00 in0.0 mm 0.00 in0.0 mm 0.00 in0.0 mm
06:13 AM 36.8°F2.7°C 32.7°F0.4°C 85% 1.0 mph NNE1.6 kmh NNE 3.0 mph4.8 kmh 29.95 in1014.2 mb 0.00 in0.0 mm 0.00 in0.0 mm 0.00 in0.0 mm
06:08 AM 37.5°F3.1°C 33.1°F0.6°C 84% Calm Calm 3.0 mph4.8 kmh 29.95 in1014.2 mb 0.00 in0.0 mm 0.00 in0.0 mm 0.00 in0.0 mm
06:03 AM 38.2°F3.4°C 33.5°F0.8°C 83% Calm Calm -- 29.95 in1014.2 mb 0.00 in0.0 mm 0.00 in0.0 mm 0.00 in0.0 mm
05:58 AM 38.5°F3.6°C 34.4°F1.3°C 85% Calm Calm -- 29.95 in1014.2 mb 0.00 in0.0 mm 0.00 in0.0 mm 0.00 in0.0 mm
05:52 AM 37.5°F3.1°C 34.0°F1.1°C 87% Calm Calm -- 29.95 in1014.2 mb 0.00 in0.0 mm 0.00 in0.0 mm 0.00 in0.0 mm
05:48 AM 37.3°F2.9°C 33.8°F1.0°C 87% Calm Calm -- 29.96 in1014.6 mb 0.00 in0.0 mm 0.00 in0.0 mm 0.00 in0.0 mm
05:43 AM 37.5°F3.1°C 33.7°F0.9°C 86% Calm Calm -- 29.95 in1014.2 mb 0.00 in0.0 mm 0.00 in0.0 mm 0.00 in0.0 mm
05:37 AM 37.7°F3.2°C 33.9°F1.1°C 86% Calm Calm -- 29.96 in1014.6 mb 0.00 in0.0 mm 0.00 in0.0 mm 0.00 in0.0 mm
05:33 AM 37.6°F3.1°C 34.1°F1.2°C 87% Calm Calm -- 29.95 in1014.2 mb 0.00 in0.0 mm 0.00 in0.0 mm 0.00 in0.0 mm
05:27 AM 37.6°F3.1°C 34.1°F1.2°C 87% 1.0 mph NE1.6 kmh NE 4.0 mph6.4 kmh 29.95 in1014.2 mb 0.00 in0.0 mm 0.00 in0.0 mm 0.00 in0.0 mm
05:23 AM 37.6°F3.1°C 34.1°F1.2°C 87% 2.0 mph NE3.2 kmh NE 4.0 mph6.4 kmh 29.95 in1014.2 mb 0.00 in0.0 mm 0.00 in0.0 mm 0.00 in0.0 mm
05:18 AM 37.2°F2.9°C 33.4°F0.8°C 86% 3.0 mph NNE4.8 kmh NNE 5.0 mph8.0 kmh 29.95 in1014.2 mb 0.00 in0.0 mm 0.00 in0.0 mm 0.00 in0.0 mm
05:13 AM 37.5°F3.1°C 34.0°F1.1°C 87% 3.0 mph N4.8 kmh N 5.0 mph8.0 kmh 29.95 in1014.2 mb 0.00 in0.0 mm 0.00 in0.0 mm 0.00 in0.0 mm
05:07 AM 37.4°F3.0°C 34.2°F1.2°C 88% 2.0 mph N3.2 kmh N 5.0 mph8.0 kmh 29.95 in1014.2 mb 0.00 in0.0 mm 0.00 in0.0 mm 0.00 in0.0 mm
05:02 AM 37.0°F2.8°C 33.5°F0.8°C 87% 2.0 mph N3.2 kmh N 5.0 mph8.0 kmh 29.95 in1014.2 mb 0.00 in0.0 mm 0.00 in0.0 mm 0.00 in0.0 mm
04:58 AM 36.8°F2.7°C 33.6°F0.9°C 88% 1.0 mph N1.6 kmh N 3.0 mph4.8 kmh 29.95 in1014.2 mb 0.00 in0.0 mm 0.00 in0.0 mm 0.00 in0.0 mm
04:53 AM 36.5°F2.5°C 33.0°F0.6°C 87% 1.0 mph NE1.6 kmh NE 3.0 mph4.8 kmh 29.95 in1014.2 mb 0.00 in0.0 mm 0.00 in0.0 mm 0.00 in0.0 mm
04:48 AM 36.6°F2.6°C 32.5°F0.3°C 85% 2.0 mph NNE3.2 kmh NNE 3.0 mph4.8 kmh 29.95 in1014.2 mb 0.00 in0.0 mm 0.00 in0.0 mm 0.00 in0.0 mm
04:43 AM 37.3°F2.9°C 33.5°F0.8°C 86% 2.0 mph NE3.2 kmh NE 4.0 mph6.4 kmh 29.95 in1014.2 mb 0.00 in0.0 mm 0.00 in0.0 mm 0.00 in0.0 mm
04:37 AM 36.5°F2.5°C 32.7°F0.4°C 86% 2.0 mph NNW3.2 kmh NNW 4.0 mph6.4 kmh 29.95 in1014.2 mb 0.00 in0.0 mm 0.00 in0.0 mm 0.00 in0.0 mm
04:33 AM 36.9°F2.7°C 32.2°F0.1°C 83% 2.0 mph WSW3.2 kmh WSW 4.0 mph6.4 kmh 29.95 in1014.2 mb 0.00 in0.0 mm 0.00 in0.0 mm 0.00 in0.0 mm
04:28 AM 37.9°F3.3°C 33.2°F0.7°C 83% 1.0 mph SW1.6 kmh SW 3.0 mph4.8 kmh 29.95 in1014.2 mb 0.00 in0.0 mm 0.00 in0.0 mm 0.00 in0.0 mm
04:22 AM 38.5°F3.6°C 33.2°F0.7°C 81% 2.0 mph S3.2 kmh S 4.0 mph6.4 kmh 29.95 in1014.2 mb 0.00 in0.0 mm 0.00 in0.0 mm 0.00 in0.0 mm
04:18 AM 39.8°F4.3°C 33.5°F0.8°C 78% 2.0 mph SSE3.2 kmh SSE 4.0 mph6.4 kmh 29.95 in1014.2 mb 0.00 in0.0 mm 0.00 in0.0 mm 0.00 in0.0 mm
04:13 AM 41.3°F5.2°C 34.3°F1.3°C 76% 2.0 mph SE3.2 kmh SE 5.0 mph8.0 kmh 29.95 in1014.2 mb 0.00 in0.0 mm 0.00 in0.0 mm 0.00 in0.0 mm
04:08 AM 41.9°F5.5°C 34.6°F1.4°C 75% 2.0 mph SSE3.2 kmh SSE 5.0 mph8.0 kmh 29.95 in1014.2 mb 0.00 in0.0 mm 0.00 in0.0 mm 0.00 in0.0 mm
04:02 AM 43.4°F6.3°C 35.0°F1.7°C 72% 2.0 mph W3.2 kmh W 4.0 mph6.4 kmh 29.95 in1014.2 mb 0.00 in0.0 mm 0.00 in0.0 mm 0.00 in0.0 mm
03:57 AM 43.7°F6.5°C 35.3°F1.8°C 72% 2.0 mph WNW3.2 kmh WNW 3.0 mph4.8 kmh 29.95 in1014.2 mb 0.00 in0.0 mm 0.00 in0.0 mm 0.00 in0.0 mm
03:52 AM 43.8°F6.6°C 35.4°F1.9°C 72% 3.0 mph NW4.8 kmh NW 5.0 mph8.0 kmh 29.96 in1014.6 mb 0.00 in0.0 mm 0.00 in0.0 mm 0.00 in0.0 mm
03:48 AM 43.7°F6.5°C 35.6°F2.0°C 73% 3.0 mph NW4.8 kmh NW 5.0 mph8.0 kmh 29.96 in1014.6 mb 0.00 in0.0 mm 0.00 in0.0 mm 0.00 in0.0 mm
03:42 AM 43.0°F6.1°C 35.6°F2.0°C 75% 2.0 mph NW3.2 kmh NW 3.0 mph4.8 kmh 29.96 in1014.6 mb 0.00 in0.0 mm 0.00 in0.0 mm 0.00 in0.0 mm
03:38 AM 43.3°F6.3°C 35.2°F1.8°C 73% 2.0 mph NW3.2 kmh NW 4.0 mph6.4 kmh 29.96 in1014.6 mb 0.00 in0.0 mm 0.00 in0.0 mm 0.00 in0.0 mm
03:33 AM 43.9°F6.6°C 35.8°F2.1°C 73% 3.0 mph NW4.8 kmh NW 6.0 mph9.7 kmh 29.96 in1014.6 mb 0.00 in0.0 mm 0.00 in0.0 mm 0.00 in0.0 mm
03:27 AM 44.1°F6.7°C 36.0°F2.2°C 73% 4.0 mph NW6.4 kmh NW 7.0 mph11.3 kmh 29.96 in1014.6 mb 0.00 in0.0 mm 0.00 in0.0 mm 0.00 in0.0 mm
03:23 AM 43.9°F6.6°C 35.8°F2.1°C 73% 5.0 mph NW8.0 kmh NW 7.0 mph11.3 kmh 29.96 in1014.6 mb 0.00 in0.0 mm 0.00 in0.0 mm 0.00 in0.0 mm
03:18 AM 43.8°F6.6°C 35.7°F2.1°C 73% 4.0 mph NW6.4 kmh NW 7.0 mph11.3 kmh 29.96 in1014.6 mb 0.00 in0.0 mm 0.00 in0.0 mm 0.00 in0.0 mm
03:13 AM 43.7°F6.5°C 36.0°F2.2°C 74% 3.0 mph NW4.8 kmh NW 5.0 mph8.0 kmh 29.96 in1014.6 mb 0.00 in0.0 mm 0.00 in0.0 mm 0.00 in0.0 mm
03:07 AM 43.8°F6.6°C 36.0°F2.2°C 74% 3.0 mph NW4.8 kmh NW 5.0 mph8.0 kmh 29.96 in1014.6 mb 0.00 in0.0 mm 0.00 in0.0 mm 0.00 in0.0 mm
03:03 AM 43.9°F6.6°C 36.1°F2.3°C 74% 4.0 mph NW6.4 kmh NW 6.0 mph9.7 kmh 29.96 in1014.6 mb 0.00 in0.0 mm 0.00 in0.0 mm 0.00 in0.0 mm
02:58 AM 43.6°F6.4°C 35.9°F2.2°C 74% 4.0 mph NW6.4 kmh NW 7.0 mph11.3 kmh 29.96 in1014.6 mb 0.00 in0.0 mm 0.00 in0.0 mm 0.00 in0.0 mm
02:53 AM 43.4°F6.3°C 36.0°F2.2°C 75% 3.0 mph NW4.8 kmh NW 7.0 mph11.3 kmh 29.97 in1014.9 mb 0.00 in0.0 mm 0.00 in0.0 mm 0.00 in0.0 mm
02:48 AM 43.4°F6.3°C 36.0°F2.2°C 75% 3.0 mph NW4.8 kmh NW 6.0 mph9.7 kmh 29.97 in1014.9 mb 0.00 in0.0 mm 0.00 in0.0 mm 0.00 in0.0 mm
02:42 AM 43.3°F6.3°C 36.2°F2.3°C 76% 3.0 mph NW4.8 kmh NW 6.0 mph9.7 kmh 29.97 in1014.9 mb 0.00 in0.0 mm 0.00 in0.0 mm 0.00 in0.0 mm
02:38 AM 43.1°F6.2°C 36.0°F2.2°C 76% 2.0 mph NW3.2 kmh NW 5.0 mph8.0 kmh 29.97 in1014.9 mb 0.00 in0.0 mm 0.00 in0.0 mm 0.00 in0.0 mm
02:33 AM 43.1°F6.2°C 36.0°F2.2°C 76% 2.0 mph NW3.2 kmh NW 4.0 mph6.4 kmh 29.98 in1015.2 mb 0.00 in0.0 mm 0.00 in0.0 mm 0.00 in0.0 mm
02:27 AM 43.3°F6.3°C 36.2°F2.3°C 76% 3.0 mph NW4.8 kmh NW 5.0 mph8.0 kmh 29.97 in1014.9 mb 0.00 in0.0 mm 0.00 in0.0 mm 0.00 in0.0 mm
02:23 AM 43.3°F6.3°C 36.2°F2.3°C 76% 3.0 mph NW4.8 kmh NW 5.0 mph8.0 kmh 29.98 in1015.2 mb 0.00 in0.0 mm 0.00 in0.0 mm 0.00 in0.0 mm
02:18 AM 43.1°F6.2°C 36.4°F2.4°C 77% 3.0 mph NW4.8 kmh NW 5.0 mph8.0 kmh 29.98 in1015.2 mb 0.00 in0.0 mm 0.00 in0.0 mm 0.00 in0.0 mm
02:13 AM 42.8°F6.0°C 36.4°F2.4°C 78% 3.0 mph NW4.8 kmh NW 5.0 mph8.0 kmh 29.98 in1015.2 mb 0.00 in0.0 mm 0.00 in0.0 mm 0.00 in0.0 mm
02:07 AM 42.5°F5.8°C 36.1°F2.3°C 78% 3.0 mph WNW4.8 kmh WNW 4.0 mph6.4 kmh 29.98 in1015.2 mb 0.00 in0.0 mm 0.00 in0.0 mm 0.00 in0.0 mm
01:53 AM 42.3°F5.7°C 36.3°F2.4°C 79% 3.0 mph WNW4.8 kmh WNW 3.0 mph4.8 kmh 29.99 in1015.6 mb 0.00 in0.0 mm 0.00 in0.0 mm 0.00 in0.0 mm
01:48 AM 42.4°F5.8°C 36.3°F2.4°C 79% 3.0 mph WNW4.8 kmh WNW 4.0 mph6.4 kmh 29.99 in1015.6 mb 0.00 in0.0 mm 0.00 in0.0 mm 0.00 in0.0 mm
01:43 AM 42.5°F5.8°C 36.4°F2.4°C 79% 3.0 mph WNW4.8 kmh WNW 4.0 mph6.4 kmh 29.99 in1015.6 mb 0.00 in0.0 mm 0.00 in0.0 mm 0.00 in0.0 mm
01:38 AM 42.4°F5.8°C 36.3°F2.4°C 79% 3.0 mph WNW4.8 kmh WNW 5.0 mph8.0 kmh 29.99 in1015.6 mb 0.00 in0.0 mm 0.00 in0.0 mm 0.00 in0.0 mm
01:33 AM 42.4°F5.8°C 36.3°F2.4°C 79% 3.0 mph WNW4.8 kmh WNW 5.0 mph8.0 kmh 29.99 in1015.6 mb 0.00 in0.0 mm 0.00 in0.0 mm 0.00 in0.0 mm
01:28 AM 42.6°F5.9°C 36.2°F2.3°C 78% 3.0 mph WNW4.8 kmh WNW 4.0 mph6.4 kmh 29.99 in1015.6 mb 0.00 in0.0 mm 0.00 in0.0 mm 0.00 in0.0 mm
01:22 AM 42.5°F5.8°C 36.4°F2.4°C 79% 3.0 mph WNW4.8 kmh WNW 4.0 mph6.4 kmh 29.99 in1015.6 mb 0.00 in0.0 mm 0.00 in0.0 mm 0.00 in0.0 mm
01:18 AM 42.4°F5.8°C 36.3°F2.4°C 79% 3.0 mph WNW4.8 kmh WNW 4.0 mph6.4 kmh 29.99 in1015.6 mb 0.00 in0.0 mm 0.00 in0.0 mm 0.00 in0.0 mm
01:12 AM 42.4°F5.8°C 36.3°F2.4°C 79% 3.0 mph WNW4.8 kmh WNW 5.0 mph8.0 kmh 30.00 in1015.9 mb 0.00 in0.0 mm 0.00 in0.0 mm 0.00 in0.0 mm
01:08 AM 42.7°F5.9°C 36.3°F2.4°C 78% 3.0 mph WNW4.8 kmh WNW 5.0 mph8.0 kmh 30.00 in1015.9 mb 0.00 in0.0 mm 0.00 in0.0 mm 0.00 in0.0 mm
01:02 AM 43.0°F6.1°C 36.3°F2.4°C 77% 3.0 mph WNW4.8 kmh WNW 4.0 mph6.4 kmh 30.00 in1015.9 mb 0.00 in0.0 mm 0.00 in0.0 mm 0.00 in0.0 mm
12:58 AM 43.1°F6.2°C 36.4°F2.4°C 77% 3.0 mph W4.8 kmh W 4.0 mph6.4 kmh 30.00 in1015.9 mb 0.00 in0.0 mm 0.00 in0.0 mm 0.00 in0.0 mm
12:53 AM 43.1°F6.2°C 36.7°F2.6°C 78% 3.0 mph W4.8 kmh W 4.0 mph6.4 kmh 30.00 in1015.9 mb 0.00 in0.0 mm 0.00 in0.0 mm 0.00 in0.0 mm
12:48 AM 43.2°F6.2°C 36.5°F2.5°C 77% 4.0 mph W6.4 kmh W 5.0 mph8.0 kmh 30.00 in1015.9 mb 0.00 in0.0 mm 0.00 in0.0 mm 0.00 in0.0 mm
12:42 AM 43.2°F6.2°C 36.8°F2.7°C 78% 4.0 mph W6.4 kmh W 5.0 mph8.0 kmh 30.00 in1015.9 mb 0.00 in0.0 mm 0.00 in0.0 mm 0.00 in0.0 mm
12:37 AM 43.0°F6.1°C 36.9°F2.7°C 79% 4.0 mph W6.4 kmh W 5.0 mph8.0 kmh 30.00 in1015.9 mb 0.00 in0.0 mm 0.00 in0.0 mm 0.00 in0.0 mm
12:33 AM 42.9°F6.1°C 36.8°F2.7°C 79% 3.0 mph WNW4.8 kmh WNW 4.0 mph6.4 kmh 30.00 in1015.9 mb 0.00 in0.0 mm 0.00 in0.0 mm 0.00 in0.0 mm
12:27 AM 42.9°F6.1°C 36.8°F2.7°C 79% 3.0 mph WNW4.8 kmh WNW 4.0 mph6.4 kmh 30.00 in1015.9 mb 0.00 in0.0 mm 0.00 in0.0 mm 0.00 in0.0 mm
12:23 AM 42.9°F6.1°C 36.8°F2.7°C 79% 2.0 mph WNW3.2 kmh WNW 4.0 mph6.4 kmh 30.00 in1015.9 mb 0.00 in0.0 mm 0.00 in0.0 mm 0.00 in0.0 mm
12:18 AM 42.8°F6.0°C 36.7°F2.6°C 79% 2.0 mph WNW3.2 kmh WNW 3.0 mph4.8 kmh 30.00 in1015.9 mb 0.00 in0.0 mm 0.00 in0.0 mm 0.00 in0.0 mm
12:13 AM 42.7°F5.9°C 37.0°F2.8°C 80% 2.0 mph WNW3.2 kmh WNW 4.0 mph6.4 kmh 30.00 in1015.9 mb 0.00 in0.0 mm 0.00 in0.0 mm 0.00 in0.0 mm
12:07 AM 42.7°F5.9°C 37.0°F2.8°C 80% 3.0 mph WNW4.8 kmh WNW 4.0 mph6.4 kmh 30.00 in1015.9 mb 0.00 in0.0 mm 0.00 in0.0 mm 0.00 in0.0 mm
12:03 AM 42.4°F5.8°C 37.0°F2.8°C 81% 3.0 mph WNW4.8 kmh WNW 5.0 mph8.0 kmh 30.00 in1015.9 mb 0.00 in0.0 mm 0.00 in0.0 mm 0.00 in0.0 mm